createdAt,value
2024-01-16T00:07:11.298Z,83.48
2024-01-16T00:17:11.216Z,88.23
2024-01-16T00:27:11.247Z,93.19
2024-01-16T00:37:10.993Z,95.96
2024-01-16T00:47:10.918Z,97.11
2024-01-16T00:57:10.769Z,99.99
2024-01-16T01:07:10.668Z,99.99
2024-01-16T01:17:10.609Z,99.99
2024-01-16T01:27:10.469Z,99.99
2024-01-16T01:37:10.388Z,99.99
2024-01-16T01:47:10.335Z,99.99
2024-01-16T01:57:10.161Z,99.99
2024-01-16T02:07:10.078Z,99.99
2024-01-16T02:17:09.998Z,99.99
2024-01-16T02:27:09.870Z,99.99
2024-01-16T02:37:09.964Z,99.99
2024-01-16T02:47:09.739Z,99.99
2024-01-16T02:57:09.594Z,99.99
2024-01-16T03:07:09.495Z,99.99
2024-01-16T03:17:09.456Z,99.99
2024-01-16T03:27:09.307Z,99.99
2024-01-16T03:37:09.233Z,99.99
2024-01-16T03:47:09.169Z,99.99
2024-01-16T03:57:09.040Z,99.99
2024-01-16T04:07:08.911Z,99.99
2024-01-16T04:17:08.857Z,99.99
2024-01-16T04:27:08.717Z,99.99
2024-01-16T04:37:08.637Z,99.99
2024-01-16T04:47:08.566Z,99.99
2024-01-16T04:57:08.453Z,99.99
2024-01-16T05:07:08.341Z,99.99
2024-01-16T05:17:16.016Z,99.99
2024-01-16T05:27:08.229Z,99.99
2024-01-16T05:37:16.753Z,99.99
2024-01-16T05:47:08.099Z,99.99
2024-01-16T05:57:08.225Z,99.99
2024-01-16T06:07:08.049Z,99.99
2024-01-16T06:17:07.761Z,99.99
2024-01-16T06:27:07.773Z,99.99
2024-01-16T06:37:07.509Z,99.99
2024-01-16T06:47:07.487Z,99.99
2024-01-16T06:57:07.325Z,99.99
2024-01-16T07:07:07.333Z,99.99
2024-01-16T07:17:07.132Z,99.99
2024-01-16T07:27:06.997Z,99.99
2024-01-16T07:37:06.880Z,99.99
2024-01-16T07:47:06.841Z,99.99
2024-01-16T07:57:06.895Z,99.99
2024-01-16T08:07:06.635Z,99.99
2024-01-16T08:17:06.530Z,99.99
2024-01-16T08:27:06.436Z,99.99
2024-01-16T08:37:06.359Z,99.99
2024-01-16T08:47:06.265Z,99.99
2024-01-16T08:57:16.468Z,99.48
2024-01-16T09:07:06.376Z,99.85
2024-01-16T09:17:05.978Z,99.95
2024-01-16T09:27:05.847Z,99.49
2024-01-16T09:37:05.740Z,99.64
2024-01-16T09:47:05.671Z,99.80
2024-01-16T09:57:05.533Z,99.99
2024-01-16T10:07:05.515Z,99.65
2024-01-16T10:17:05.363Z,98.46
2024-01-16T10:27:05.258Z,97.68
2024-01-16T10:37:05.198Z,95.46
2024-01-16T10:47:05.046Z,94.73
2024-01-16T10:57:04.943Z,94.94
2024-01-16T11:07:04.941Z,93.50
2024-01-16T11:17:04.743Z,94.00
2024-01-16T11:27:04.752Z,93.41
2024-01-16T11:37:04.538Z,93.10
2024-01-16T11:47:04.554Z,94.21
2024-01-16T11:57:04.399Z,95.29
2024-01-16T12:07:04.374Z,96.13
2024-01-16T12:17:04.149Z,96.13
2024-01-16T12:27:04.076Z,94.94
2024-01-16T12:37:03.946Z,96.13
2024-01-16T12:47:03.883Z,95.67
2024-01-16T12:57:03.934Z,94.48
2024-01-16T13:07:03.796Z,94.84
2024-01-16T13:17:03.645Z,98.63
2024-01-16T13:27:03.609Z,97.55
2024-01-16T13:47:08.660Z,92.03
2024-01-16T13:57:07.365Z,92.29
2024-01-16T14:07:11.972Z,92.40
2024-01-16T14:17:03.045Z,94.63
2024-01-16T14:27:02.885Z,92.71
2024-01-16T14:37:02.775Z,92.18
2024-01-16T14:47:02.680Z,93.12
2024-01-16T14:57:02.748Z,93.12
2024-01-16T15:07:02.715Z,94.84
2024-01-16T15:17:02.426Z,94.84
2024-01-16T15:27:02.380Z,97.28
2024-01-16T15:37:02.308Z,99.20
2024-01-16T15:47:02.124Z,99.99
2024-01-16T15:57:02.178Z,99.99
2024-01-16T16:07:01.972Z,99.99
2024-01-16T16:17:01.768Z,99.99
2024-01-16T16:27:01.668Z,99.99
2024-01-16T16:37:01.608Z,99.99
2024-01-16T16:47:01.504Z,99.99
2024-01-16T16:57:01.546Z,99.99
2024-01-16T17:07:01.382Z,99.99
2024-01-16T17:17:01.227Z,99.99
2024-01-16T17:27:01.153Z,99.99
2024-01-16T17:37:01.003Z,99.52
2024-01-16T17:47:00.878Z,99.46
2024-01-16T17:57:00.801Z,99.35
2024-01-16T18:07:00.809Z,99.04
2024-01-16T18:17:00.576Z,97.99
2024-01-16T18:27:00.601Z,97.37
2024-01-16T18:37:00.514Z,96.84
2024-01-16T18:47:00.355Z,96.64
2024-01-16T18:57:00.294Z,97.05
2024-01-16T19:07:00.109Z,97.00
2024-01-16T19:17:00.003Z,97.10
2024-01-16T19:26:59.966Z,97.10
2024-01-16T19:36:59.799Z,97.00
2024-01-16T19:46:59.923Z,96.47
2024-01-16T19:56:59.616Z,96.68
2024-01-16T20:06:59.763Z,95.64
2024-01-16T20:16:59.395Z,94.90
2024-01-16T20:26:59.359Z,94.80
2024-01-16T20:36:59.497Z,94.07
2024-01-16T20:46:59.139Z,94.07
2024-01-16T20:56:59.364Z,93.02
2024-01-16T21:06:59.000Z,93.13
2024-01-16T21:16:58.878Z,93.96
2024-01-16T21:26:58.837Z,94.95
2024-01-16T21:36:58.732Z,96.04
2024-01-16T21:46:58.549Z,96.88
2024-01-16T21:56:58.559Z,96.88
2024-01-16T22:06:58.413Z,97.55
2024-01-16T22:16:58.255Z,97.55
2024-01-16T22:26:58.140Z,97.44
2024-01-16T22:36:58.061Z,96.61
2024-01-16T22:46:57.940Z,96.96
2024-01-16T22:56:57.880Z,97.95
2024-01-16T23:06:57.791Z,98.72
2024-01-16T23:16:57.639Z,99.51
2024-01-16T23:27:05.206Z,99.93
2024-01-16T23:36:57.482Z,99.99
2024-01-16T23:46:57.358Z,99.99
2024-01-16T23:56:57.645Z,99.99
